createdAt,value
2023-02-27T00:02:00.802Z,6.60
2023-02-27T00:04:27.930Z,7.40
2023-02-27T00:06:54.941Z,7.30
2023-02-27T00:09:21.718Z,6.80
2023-02-27T00:11:48.497Z,6.30
2023-02-27T00:14:15.366Z,6.80
2023-02-27T00:16:42.108Z,6.70
2023-02-27T00:19:08.929Z,8.00
2023-02-27T00:21:36.863Z,7.00
2023-02-27T00:24:04.224Z,6.10
2023-02-27T00:26:31.135Z,6.40
2023-02-27T00:28:57.941Z,7.70
2023-02-27T00:31:25.053Z,6.80
2023-02-27T00:33:52.280Z,6.60
2023-02-27T00:36:19.155Z,7.60
2023-02-27T00:38:45.989Z,7.10
2023-02-27T00:41:12.815Z,6.50
2023-02-27T00:43:39.748Z,6.80
2023-02-27T00:46:06.954Z,7.20
2023-02-27T00:48:33.722Z,7.00
2023-02-27T00:51:01.743Z,7.20
2023-02-27T00:53:28.549Z,7.30
2023-02-27T00:55:55.667Z,5.60
2023-02-27T00:58:22.483Z,6.80
2023-02-27T01:00:49.375Z,6.90
2023-02-27T01:03:16.219Z,7.00
2023-02-27T01:05:43.069Z,6.40
2023-02-27T01:08:09.924Z,6.80
2023-02-27T01:10:36.762Z,5.60
2023-02-27T01:13:06.691Z,6.00
2023-02-27T01:15:33.850Z,6.10
2023-02-27T01:18:00.952Z,6.70
2023-02-27T01:20:28.544Z,7.40
2023-02-27T01:22:55.517Z,6.50
2023-02-27T01:25:22.385Z,7.40
2023-02-27T01:27:49.700Z,7.00
2023-02-27T01:30:16.826Z,6.70
2023-02-27T01:32:44.719Z,6.70
2023-02-27T01:35:12.674Z,6.90
2023-02-27T01:37:39.737Z,6.50
2023-02-27T01:40:07.864Z,6.20
2023-02-27T01:42:35.489Z,8.00
2023-02-27T01:45:11.872Z,7.50
2023-02-27T01:47:45.199Z,6.30
2023-02-27T01:50:13.801Z,7.20
2023-02-27T01:52:43.140Z,6.90
2023-02-27T01:55:12.897Z,7.40
2023-02-27T01:57:42.559Z,7.60
2023-02-27T02:00:10.497Z,7.00
2023-02-27T02:02:46.136Z,7.30
2023-02-27T02:05:14.628Z,6.70
2023-02-27T02:07:44.202Z,7.10
2023-02-27T02:10:14.067Z,7.90
2023-02-27T02:12:42.264Z,6.30
2023-02-27T02:15:09.458Z,6.20
2023-02-27T02:17:39.739Z,7.90
2023-02-27T02:20:18.744Z,7.40
2023-02-27T02:23:23.415Z,7.10
2023-02-27T02:25:59.315Z,6.00
2023-02-27T02:28:35.188Z,7.00
2023-02-27T02:31:23.948Z,7.50
2023-02-27T02:34:09.837Z,6.30
2023-02-27T02:37:04.104Z,5.80
2023-02-27T02:39:30.927Z,5.60
2023-02-27T02:42:13.643Z,6.60
2023-02-27T02:44:49.222Z,7.40
2023-02-27T02:47:24.934Z,8.20
2023-02-27T02:50:08.520Z,9.30
2023-02-27T02:53:12.654Z,9.50
2023-02-27T02:55:49.142Z,12.20
2023-02-27T02:58:18.791Z,13.40
2023-02-27T03:00:52.259Z,11.90
2023-02-27T03:03:26.230Z,11.20
2023-02-27T03:08:33.613Z,7.80
2023-02-27T03:11:05.496Z,8.10
2023-02-27T03:13:41.994Z,7.50
2023-02-27T03:16:17.195Z,7.40
2023-02-27T03:18:58.257Z,7.70
2023-02-27T03:21:47.425Z,7.50
2023-02-27T03:24:23.903Z,7.90
2023-02-27T03:26:53.081Z,8.30
2023-02-27T03:29:29.928Z,7.50
2023-02-27T03:32:01.652Z,8.00
2023-02-27T03:34:34.918Z,7.40
2023-02-27T03:37:13.903Z,7.50
2023-02-27T03:39:47.393Z,9.20
2023-02-27T03:42:41.982Z,8.60
2023-02-27T03:45:37.786Z,7.10
2023-02-27T03:48:06.458Z,7.80
2023-02-27T03:50:35.921Z,9.50
2023-02-27T03:53:13.244Z,7.60
2023-02-27T03:55:43.452Z,9.00
2023-02-27T03:58:11.001Z,11.10
2023-02-27T04:00:38.287Z,12.70
2023-02-27T04:03:05.551Z,11.70
2023-02-27T04:05:33.334Z,10.50
2023-02-27T04:08:36.594Z,10.80
2023-02-27T04:11:24.817Z,11.50
2023-02-27T04:14:09.093Z,12.50
2023-02-27T04:16:38.886Z,10.50
2023-02-27T04:19:29.421Z,9.30
2023-02-27T04:22:21.217Z,8.50
2023-02-27T04:25:03.922Z,8.30
2023-02-27T04:27:33.718Z,9.00
2023-02-27T04:30:22.344Z,8.10
2023-02-27T04:33:07.341Z,10.90
2023-02-27T04:35:43.500Z,8.50
2023-02-27T04:38:29.541Z,7.70
2023-02-27T04:41:03.677Z,8.40
2023-02-27T04:46:01.005Z,7.60
2023-02-27T04:48:41.074Z,9.90
2023-02-27T04:51:16.667Z,8.90
2023-02-27T04:54:22.997Z,11.00
2023-02-27T04:56:55.362Z,10.40
2023-02-27T04:59:29.504Z,8.60
2023-02-27T05:02:13.038Z,10.20
2023-02-27T05:04:43.033Z,12.20
2023-02-27T05:07:16.985Z,9.90
2023-02-27T05:09:57.657Z,9.90
2023-02-27T05:12:52.517Z,8.90
2023-02-27T05:15:26.791Z,9.20
2023-02-27T05:18:07.592Z,8.30
2023-02-27T05:20:50.594Z,9.20
2023-02-27T05:23:44.470Z,8.40
2023-02-27T05:26:34.966Z,8.00
2023-02-27T05:29:08.828Z,8.60
2023-02-27T05:31:46.472Z,7.50
2023-02-27T05:34:22.655Z,9.00
2023-02-27T05:37:15.787Z,9.40
2023-02-27T05:39:45.721Z,10.10
2023-02-27T05:42:37.821Z,11.40
2023-02-27T05:45:10.055Z,8.30
2023-02-27T05:47:43.761Z,9.80
2023-02-27T05:50:19.341Z,8.60
2023-02-27T05:52:48.546Z,10.20
2023-02-27T05:55:21.563Z,9.40
2023-02-27T05:57:56.066Z,10.80
2023-02-27T06:00:23.050Z,11.70
2023-02-27T06:02:49.969Z,9.20
2023-02-27T06:05:18.837Z,11.60
2023-02-27T06:07:46.379Z,12.50
2023-02-27T06:10:18.941Z,11.90
2023-02-27T06:12:45.906Z,11.90
2023-02-27T06:15:12.770Z,12.40
2023-02-27T06:17:40.298Z,11.70
2023-02-27T06:20:08.210Z,11.80
2023-02-27T06:22:35.240Z,12.30
2023-02-27T06:25:02.493Z,11.60
2023-02-27T06:27:29.358Z,10.60
2023-02-27T06:29:57.101Z,14.50
2023-02-27T06:32:25.225Z,13.30
2023-02-27T06:34:52.729Z,13.20
2023-02-27T06:37:21.195Z,13.30
2023-02-27T06:39:48.442Z,14.80
2023-02-27T06:42:16.053Z,13.30
2023-02-27T06:44:42.919Z,12.20
2023-02-27T06:47:09.910Z,13.00
2023-02-27T06:49:36.759Z,12.80
2023-02-27T06:52:03.524Z,11.10
2023-02-27T06:54:30.358Z,14.80
2023-02-27T06:56:57.231Z,11.90
2023-02-27T06:59:24.033Z,12.30
2023-02-27T07:01:51.144Z,14.00
2023-02-27T07:04:18.192Z,15.20
2023-02-27T07:07:33.939Z,13.30
2023-02-27T07:09:32.166Z,14.30
2023-02-27T07:11:59.355Z,13.50
2023-02-27T07:14:26.164Z,14.50
2023-02-27T07:16:56.133Z,12.70
2023-02-27T07:19:24.130Z,13.70
2023-02-27T07:21:51.029Z,14.50
2023-02-27T07:24:17.894Z,14.20
2023-02-27T07:26:44.704Z,14.00
2023-02-27T07:29:11.876Z,16.30
2023-02-27T07:31:38.754Z,17.60
2023-02-27T07:34:06.310Z,18.20
2023-02-27T07:36:33.855Z,17.70
2023-02-27T07:39:03.142Z,16.40
2023-02-27T07:41:31.214Z,15.00
2023-02-27T07:44:00.900Z,15.10
2023-02-27T07:46:28.372Z,14.70
2023-02-27T07:48:55.423Z,15.00
2023-02-27T07:51:22.423Z,17.00
2023-02-27T07:53:49.260Z,14.70
2023-02-27T07:56:15.965Z,15.00
2023-02-27T07:58:42.805Z,12.00
2023-02-27T08:01:09.694Z,12.20
2023-02-27T08:03:36.709Z,12.70
2023-02-27T08:06:03.608Z,12.20
2023-02-27T08:08:30.525Z,14.50
2023-02-27T08:10:58.213Z,17.60
2023-02-27T08:13:55.698Z,15.70
2023-02-27T08:16:12.214Z,13.80
2023-02-27T08:18:39.010Z,12.80
2023-02-27T08:21:05.975Z,11.30
2023-02-27T08:23:34.061Z,12.80
2023-02-27T08:26:02.481Z,17.10
2023-02-27T08:28:29.529Z,14.00
2023-02-27T08:30:56.470Z,15.80
2023-02-27T08:33:24.278Z,17.90
2023-02-27T08:35:51.488Z,17.10
2023-02-27T08:38:18.481Z,16.80
2023-02-27T08:40:45.499Z,13.20
2023-02-27T08:43:12.386Z,13.40
2023-02-27T08:45:39.266Z,14.70
2023-02-27T08:48:06.453Z,14.10
2023-02-27T08:50:33.522Z,12.00
2023-02-27T08:53:00.367Z,13.50
2023-02-27T08:55:28.672Z,15.80
2023-02-27T08:57:55.737Z,12.90
2023-02-27T09:00:23.219Z,14.10
2023-02-27T09:02:50.649Z,13.10
2023-02-27T09:05:17.545Z,12.60
2023-02-27T09:07:45.209Z,12.20
2023-02-27T09:10:12.546Z,14.90
2023-02-27T09:12:39.540Z,13.80
2023-02-27T09:15:07.644Z,14.60
2023-02-27T09:17:34.454Z,13.30
2023-02-27T09:20:01.275Z,15.90
2023-02-27T09:22:28.374Z,14.40
2023-02-27T09:24:55.728Z,15.40
2023-02-27T09:27:23.520Z,15.50
2023-02-27T09:29:55.446Z,17.30
2023-02-27T09:32:23.249Z,15.00
2023-02-27T09:34:50.632Z,15.50
2023-02-27T09:37:18.840Z,15.70
2023-02-27T09:39:46.377Z,15.30
2023-02-27T09:42:19.039Z,14.00
2023-02-27T09:44:49.124Z,20.50
2023-02-27T09:47:42.105Z,16.30
2023-02-27T09:50:37.412Z,17.80
2023-02-27T09:53:06.990Z,13.40
2023-02-27T09:55:38.619Z,14.50
2023-02-27T09:58:30.225Z,14.70
2023-02-27T10:01:04.193Z,11.90
2023-02-27T10:03:43.291Z,11.20
2023-02-27T10:06:31.046Z,10.40
2023-02-27T10:09:16.595Z,11.10
2023-02-27T10:11:52.567Z,10.60
2023-02-27T10:14:29.538Z,10.80
2023-02-27T10:16:58.565Z,12.60
2023-02-27T10:19:32.953Z,11.70
2023-02-27T10:22:05.996Z,11.00
2023-02-27T10:24:38.669Z,11.20
2023-02-27T10:27:13.433Z,10.60
2023-02-27T10:29:41.185Z,10.60
2023-02-27T10:32:23.523Z,10.00
2023-02-27T10:34:58.074Z,10.20
2023-02-27T10:37:26.715Z,9.90
2023-02-27T10:39:57.445Z,8.10
2023-02-27T10:42:27.586Z,10.60
2023-02-27T10:44:55.601Z,11.80
2023-02-27T10:47:24.223Z,9.20
2023-02-27T10:49:52.706Z,9.20
2023-02-27T10:52:19.806Z,7.60
2023-02-27T10:54:47.569Z,8.70
2023-02-27T10:57:26.986Z,9.00
2023-02-27T10:59:58.056Z,10.20
2023-02-27T11:02:36.615Z,9.20
2023-02-27T11:05:06.381Z,9.10
2023-02-27T11:07:38.937Z,8.60
2023-02-27T11:10:14.980Z,10.20
2023-02-27T11:13:16.782Z,7.60
2023-02-27T11:15:43.794Z,9.80
2023-02-27T11:18:42.913Z,10.20
2023-02-27T11:21:19.694Z,9.00
2023-02-27T11:23:58.353Z,8.20
2023-02-27T11:26:34.407Z,8.00
2023-02-27T11:29:14.454Z,7.90
2023-02-27T11:31:52.721Z,8.00
2023-02-27T11:34:38.063Z,9.50
2023-02-27T11:37:18.538Z,8.80
2023-02-27T11:39:52.286Z,8.50
2023-02-27T11:42:32.540Z,8.80
2023-02-27T11:46:05.153Z,7.40
2023-02-27T11:48:20.880Z,10.60
2023-02-27T11:51:16.659Z,8.30
2023-02-27T11:54:04.975Z,8.30
2023-02-27T11:56:41.273Z,8.10
2023-02-27T11:59:11.866Z,7.60
2023-02-27T12:01:48.326Z,7.60
2023-02-27T12:04:26.316Z,8.00
2023-02-27T12:07:03.346Z,7.20
2023-02-27T12:09:50.950Z,7.10
2023-02-27T12:12:52.399Z,7.80
2023-02-27T12:15:36.685Z,9.80
2023-02-27T12:18:19.505Z,9.20
2023-02-27T12:21:10.368Z,7.70
2023-02-27T12:23:47.455Z,8.20
2023-02-27T12:26:38.641Z,6.90
2023-02-27T12:29:30.441Z,6.90
2023-02-27T12:32:38.402Z,7.70
2023-02-27T12:35:32.558Z,6.50
2023-02-27T12:38:00.450Z,5.70
2023-02-27T12:40:39.568Z,5.70
2023-02-27T12:43:35.562Z,5.70
2023-02-27T12:46:44.757Z,5.90
2023-02-27T12:49:53.883Z,5.70
2023-02-27T12:52:20.772Z,5.60
2023-02-27T12:54:58.683Z,6.10
2023-02-27T12:57:39.555Z,4.80
2023-02-27T13:00:20.400Z,6.70
2023-02-27T13:02:56.525Z,6.60
2023-02-27T13:05:34.885Z,6.60
2023-02-27T13:08:17.215Z,6.10
2023-02-27T13:10:53.312Z,6.10
2023-02-27T13:13:41.803Z,5.70
2023-02-27T13:16:18.995Z,6.20
2023-02-27T13:19:05.945Z,6.50
2023-02-27T13:22:02.746Z,6.80
2023-02-27T13:24:31.515Z,6.90
2023-02-27T13:27:14.067Z,6.10
2023-02-27T13:29:47.168Z,6.50
2023-02-27T13:32:41.382Z,6.20
2023-02-27T13:35:16.486Z,6.60
2023-02-27T13:38:01.193Z,9.00
2023-02-27T13:40:39.071Z,7.50
2023-02-27T13:43:06.113Z,7.40
2023-02-27T13:46:22.696Z,8.20
2023-02-27T13:48:54.030Z,5.60
2023-02-27T13:51:37.057Z,7.70
2023-02-27T13:54:12.720Z,6.50
2023-02-27T13:56:54.613Z,5.50
2023-02-27T13:59:31.286Z,7.20
2023-02-27T14:01:58.131Z,6.70
2023-02-27T14:04:28.837Z,7.80
2023-02-27T14:07:18.267Z,8.70
2023-02-27T14:09:47.295Z,8.80
2023-02-27T14:12:44.382Z,9.10
2023-02-27T14:15:24.579Z,8.30
2023-02-27T14:18:11.453Z,6.20
2023-02-27T14:20:42.607Z,8.20
2023-02-27T14:23:16.729Z,7.40
2023-02-27T14:28:30.048Z,6.80
2023-02-27T14:31:18.942Z,7.60
2023-02-27T14:33:49.944Z,7.40
2023-02-27T14:36:19.057Z,7.10
2023-02-27T14:38:46.909Z,6.70
2023-02-27T14:41:44.503Z,6.70
2023-02-27T14:44:22.612Z,6.80
2023-02-27T14:46:52.257Z,6.70
2023-02-27T14:49:27.717Z,7.20
2023-02-27T14:51:55.453Z,7.10
2023-02-27T14:54:24.811Z,7.30
2023-02-27T14:57:00.264Z,7.80
2023-02-27T14:59:29.986Z,7.70
2023-02-27T15:01:58.705Z,6.90
2023-02-27T15:04:27.558Z,8.20
2023-02-27T15:06:56.221Z,10.00
2023-02-27T15:09:26.876Z,9.10
2023-02-27T15:12:03.637Z,9.00
2023-02-27T15:14:39.721Z,7.50
2023-02-27T15:17:28.288Z,7.30
2023-02-27T15:19:57.607Z,7.20
2023-02-27T15:22:38.636Z,6.30
2023-02-27T15:25:25.448Z,9.70
2023-02-27T15:27:52.452Z,9.20
2023-02-27T15:30:21.296Z,9.70
2023-02-27T15:32:49.053Z,13.00
2023-02-27T15:35:23.328Z,12.60
2023-02-27T15:37:55.827Z,11.20
2023-02-27T15:40:27.118Z,11.40
2023-02-27T15:42:55.511Z,8.90
2023-02-27T15:46:05.623Z,8.90
2023-02-27T15:48:33.242Z,7.50
2023-02-27T15:51:03.288Z,8.90
2023-02-27T15:53:33.380Z,8.70
2023-02-27T15:56:08.990Z,9.70
2023-02-27T15:58:41.771Z,9.40
2023-02-27T16:01:17.064Z,33.60
2023-02-27T16:03:47.644Z,41.10
2023-02-27T16:06:27.315Z,65.80
2023-02-27T16:09:03.341Z,42.50
2023-02-27T16:11:33.272Z,68.40
2023-02-27T16:14:01.301Z,31.40
2023-02-27T16:16:35.639Z,34.10
2023-02-27T16:19:26.347Z,22.90
2023-02-27T16:22:11.539Z,32.40
2023-02-27T16:24:38.527Z,22.60
2023-02-27T16:27:05.748Z,14.90
2023-02-27T16:29:42.533Z,47.00
2023-02-27T16:32:23.194Z,24.50
2023-02-27T16:34:51.488Z,20.50
2023-02-27T16:37:22.785Z,14.80
2023-02-27T16:39:51.746Z,14.70
2023-02-27T16:42:19.120Z,13.60
2023-02-27T16:44:46.551Z,10.80
2023-02-27T16:47:14.100Z,9.30
2023-02-27T16:49:41.124Z,16.70
2023-02-27T16:52:11.401Z,16.00
2023-02-27T16:54:38.463Z,11.60
2023-02-27T16:57:05.326Z,13.80
2023-02-27T16:59:36.880Z,15.80
2023-02-27T17:02:07.091Z,15.70
2023-02-27T17:04:35.960Z,15.00
2023-02-27T17:07:06.821Z,13.40
2023-02-27T17:09:34.617Z,15.30
2023-02-27T17:12:01.454Z,13.30
2023-02-27T17:14:28.223Z,17.40
2023-02-27T17:16:55.070Z,12.80
2023-02-27T17:19:22.710Z,14.00
2023-02-27T17:21:50.280Z,13.60
2023-02-27T17:24:17.163Z,11.00
2023-02-27T17:26:43.989Z,11.60
2023-02-27T17:29:11.595Z,13.50
2023-02-27T17:31:41.147Z,16.10
2023-02-27T17:34:08.584Z,13.60
2023-02-27T17:36:36.133Z,12.80
2023-02-27T17:39:03.489Z,10.30
2023-02-27T17:41:31.351Z,16.20
2023-02-27T17:44:01.141Z,14.00
2023-02-27T17:46:48.660Z,23.00
2023-02-27T17:49:16.387Z,16.40
2023-02-27T17:51:43.589Z,14.20
2023-02-27T17:54:10.724Z,11.50
2023-02-27T17:56:38.371Z,42.90
2023-02-27T17:59:05.243Z,15.60
2023-02-27T18:01:32.241Z,23.50
2023-02-27T18:03:59.280Z,15.80
2023-02-27T18:06:26.357Z,17.10
2023-02-27T18:08:53.742Z,25.20
2023-02-27T18:11:21.577Z,17.20
2023-02-27T18:13:50.051Z,23.50
2023-02-27T18:16:17.835Z,13.60
2023-02-27T18:18:45.321Z,15.00
2023-02-27T18:21:15.100Z,19.70
2023-02-27T18:23:43.223Z,19.00
2023-02-27T18:26:27.269Z,12.90
2023-02-27T18:29:08.037Z,15.80
2023-02-27T18:31:38.444Z,15.00
2023-02-27T18:34:07.248Z,16.40
2023-02-27T18:36:35.032Z,17.00
2023-02-27T18:39:04.455Z,16.10
2023-02-27T18:41:32.028Z,20.40
2023-02-27T18:43:59.137Z,17.70
2023-02-27T18:46:27.795Z,17.10
2023-02-27T18:48:55.516Z,14.80
2023-02-27T18:51:22.486Z,19.10
2023-02-27T18:53:50.252Z,14.00
2023-02-27T18:56:22.321Z,16.20
2023-02-27T18:58:50.044Z,16.30
2023-02-27T19:01:25.463Z,17.70
2023-02-27T19:03:55.484Z,15.80
2023-02-27T19:06:22.507Z,12.70
2023-02-27T19:08:49.514Z,11.80
2023-02-27T19:11:35.223Z,13.90
2023-02-27T19:14:04.452Z,11.60
2023-02-27T19:16:31.917Z,13.60
2023-02-27T19:19:01.633Z,9.90
2023-02-27T19:21:29.987Z,10.60
2023-02-27T19:23:57.822Z,11.20
2023-02-27T19:26:25.986Z,12.80
2023-02-27T19:28:54.582Z,11.80
2023-02-27T19:31:23.619Z,13.50
2023-02-27T19:33:51.274Z,11.60
2023-02-27T19:36:21.496Z,11.50
2023-02-27T19:38:48.873Z,12.30
2023-02-27T19:41:17.065Z,10.10
2023-02-27T19:43:44.660Z,10.00
2023-02-27T19:46:15.565Z,11.60
2023-02-27T19:48:42.849Z,10.30
2023-02-27T19:51:12.770Z,9.40
2023-02-27T19:53:41.896Z,11.60
2023-02-27T19:56:16.222Z,11.60
2023-02-27T19:58:43.125Z,13.70
2023-02-27T20:01:10.793Z,10.70
2023-02-27T20:03:42.395Z,11.10
2023-02-27T20:06:18.805Z,11.00
2023-02-27T20:08:45.913Z,11.10
2023-02-27T20:11:15.184Z,11.20
2023-02-27T20:13:42.620Z,10.90
2023-02-27T20:16:12.359Z,11.80
2023-02-27T20:18:41.572Z,12.70
2023-02-27T20:21:17.442Z,12.70
2023-02-27T20:23:45.865Z,10.50
2023-02-27T20:26:19.574Z,10.90
2023-02-27T20:28:47.846Z,11.20
2023-02-27T20:31:16.554Z,11.40
2023-02-27T20:33:43.383Z,10.40
2023-02-27T20:36:10.905Z,12.10
2023-02-27T20:38:39.115Z,11.10
2023-02-27T20:41:29.324Z,13.10
2023-02-27T20:43:57.120Z,9.70
2023-02-27T20:46:27.924Z,11.40
2023-02-27T20:49:00.213Z,10.60
2023-02-27T20:51:29.952Z,10.00
2023-02-27T20:53:59.433Z,9.70
2023-02-27T20:56:35.875Z,8.80
2023-02-27T20:59:05.349Z,8.30
2023-02-27T21:01:32.901Z,8.60
2023-02-27T21:04:00.182Z,9.20
2023-02-27T21:06:27.580Z,9.60
2023-02-27T21:08:56.525Z,9.70
2023-02-27T21:11:28.687Z,9.30
2023-02-27T21:13:57.593Z,9.70
2023-02-27T21:16:25.239Z,11.50
2023-02-27T21:18:52.848Z,9.70
2023-02-27T21:21:23.155Z,9.50
2023-02-27T21:23:50.770Z,10.20
2023-02-27T21:26:28.724Z,9.60
2023-02-27T21:29:01.155Z,10.90
2023-02-27T21:31:31.043Z,10.80
2023-02-27T21:34:00.261Z,12.30
2023-02-27T21:36:31.245Z,11.30
2023-02-27T21:39:00.437Z,11.10
2023-02-27T21:41:28.681Z,12.30
2023-02-27T21:43:59.968Z,12.90
2023-02-27T21:46:28.183Z,9.90
2023-02-27T21:48:55.652Z,11.30
2023-02-27T21:51:38.298Z,13.60
2023-02-27T21:54:08.635Z,11.20
2023-02-27T21:56:35.843Z,10.50
2023-02-27T21:59:02.826Z,11.40
2023-02-27T22:01:30.782Z,11.70
2023-02-27T22:03:57.969Z,10.30
2023-02-27T22:06:27.000Z,11.70
2023-02-27T22:08:55.539Z,11.00
2023-02-27T22:11:24.172Z,10.60
2023-02-27T22:13:51.245Z,9.50
2023-02-27T22:16:19.277Z,8.80
2023-02-27T22:18:47.335Z,13.20
2023-02-27T22:21:17.488Z,11.70
2023-02-27T22:23:45.908Z,12.20
2023-02-27T22:26:18.986Z,12.80
2023-02-27T22:28:45.800Z,11.60
2023-02-27T22:31:20.438Z,11.20
2023-02-27T22:33:49.744Z,10.50
2023-02-27T22:36:22.564Z,10.60
2023-02-27T22:38:49.573Z,10.00
2023-02-27T22:41:42.974Z,12.20
2023-02-27T22:44:13.105Z,11.50
2023-02-27T22:46:43.611Z,11.40
2023-02-27T22:49:19.690Z,11.80
2023-02-27T22:51:50.642Z,12.10
2023-02-27T22:54:19.979Z,10.30
2023-02-27T22:56:50.284Z,10.10
2023-02-27T22:59:17.283Z,12.30
2023-02-27T23:01:44.094Z,11.60
2023-02-27T23:04:11.222Z,9.50
2023-02-27T23:06:39.820Z,11.20
2023-02-27T23:09:10.464Z,10.90
2023-02-27T23:11:37.425Z,12.00
2023-02-27T23:14:04.335Z,11.40
2023-02-27T23:16:31.479Z,9.90
2023-02-27T23:18:59.349Z,9.70
2023-02-27T23:21:35.230Z,11.10
2023-02-27T23:24:06.971Z,9.80
2023-02-27T23:26:38.402Z,11.30
2023-02-27T23:29:06.285Z,9.90
2023-02-27T23:31:35.420Z,10.50
2023-02-27T23:34:05.323Z,12.10
2023-02-27T23:36:33.709Z,10.10
2023-02-27T23:39:02.351Z,8.90
2023-02-27T23:41:30.271Z,10.00
2023-02-27T23:44:15.588Z,9.00
2023-02-27T23:46:42.474Z,11.50
2023-02-27T23:49:10.724Z,10.30
2023-02-27T23:51:37.581Z,11.20
2023-02-27T23:54:04.479Z,10.00
2023-02-27T23:56:31.405Z,9.70
2023-02-27T23:59:01.165Z,10.20
